FIMP Airport Information

Runway Information
Runway 14 Length 11056 ft width 148 ft
Elevation 183 ft Threshold 1082 ft Heading 117
Runway 32 Length 11056 ft Width 148 ft
Elevation 98 ft Threshold 0 ft Heading 297
Airport Frequencies
Type A/G Name INFO Frequency 347.6 MHZ
Type APP Name APP Frequency 119.1 MHZ
Type ATIS Name ATIS Frequency 126.2 MHZ
Type TWR Name TWR Frequency 118.1 MHZ
Airport Navaids
Type NDB Name Flic -eE --lFc Frequency 258 KHZ
Type VOR-DME Name Grand Bay Frequency 114800 KHZ
Type NDB Name Plaisance Frequency 343 KHZ
Type VOR-DME Name Plaisance Frequency 113700 KHZ
Airport Weather Information & NOTAM
ADDS - METARS form results

(0941 UTC 26 May 2018)
 
METAR text: FIMP 260900Z 08014KT 9999 BKN016 28/21 Q1018
Conditions at: FIMP (PLAISANCE , MU) observed 0900 UTC 26 May 2018
Temperature: 28.0°C (82°F)
Dewpoint: 21.0°C (70°F) [RH = 66%]
Pressure (altimeter): 30.06 inches Hg (1018.0 mb)
Winds: from the E (80 degrees) at 16 MPH (14 knots; 7.3 m/s)
Visibility: 6 or more miles (10+ km)
Ceiling: 1600 feet AGL
Clouds: broken clouds at 1600 feet AGL
Weather: no significant weather observed at this time